Oceanus — WDI8151 — position and weather

sailwx.info

Track history (hours):
 
Tides and Currents Weather Stations Pressure Air Temp Water Temp Dewpoint Dewpoint Depression Visibility Wind Speed Wind Dir Waves Ship Positions

Oceanus

Owner: G & H TOWING COMPANY, Galveston, TX. More information available from US FCC via Universal Licensing System and Coast Guard Vessel Documentation Center.

Last reported at 2018-Jan-20 04:04 UTC. Time now 2018-Jan-23 23:51 UTC.
Position N 29°42' W 095°01'.

Length 24 m; draft 5.4 m.

Type: Tug. MMSI: 367735750.

Date/timePositionNaut miles runAvg speedWind from/ knotsBaromVisibWave heightAir tempDewpointWater temp
2018-Jan-20 04:04N 29°42' W 095°01'2 8.3
2018-Jan-20 03:53N 29°42' W 094°59'1 2.3
2018-Jan-20 03:26N 29°41' W 095°00'2 0.4
2018-Jan-19 23:17N 29°42' W 095°01'2 0.3
2018-Jan-19 17:51N 29°42' W 094°59'1 1.1
2018-Jan-19 16:56N 29°41' W 095°00'1 2.9
2018-Jan-19 16:30N 29°41' W 094°59'0 0.8
2018-Jan-19 16:00N 29°41' W 094°59'1 0.9
2018-Jan-19 15:23N 29°41' W 094°59'0 1.3
2018-Jan-19 15:00N 29°41' W 094°59'  
2018-Jan-12 03:33N 29°45' W 095°07'5 0.2
2018-Jan-11 04:12N 29°43' W 095°01'1 0.2
2018-Jan-11 01:01N 29°42' W 095°01'0 6.1
2018-Jan-11 00:59N 29°42' W 095°01'1 2.8
2018-Jan-11 00:30N 29°44' W 095°01'0 0.0
2018-Jan-10 23:59N 29°44' W 095°01'1 1.5
2018-Jan-10 23:01N 29°42' W 095°01'0 2.0
2018-Jan-10 23:00N 29°42' W 095°01'0 0.2
2018-Jan-10 22:26N 29°42' W 095°01'0 0.0
2018-Jan-10 21:50N 29°42' W 095°01'0 0.0
2018-Jan-10 21:26N 29°42' W 095°01'0 0.0
2018-Jan-10 20:50N 29°42' W 095°01'0 0.0
2018-Jan-10 20:26N 29°42' W 095°01'0 0.2
2018-Jan-10 19:58N 29°42' W 095°01'  
Track history (hours):
 
Tides and Currents Weather Stations Pressure Air Temp Water Temp Dewpoint Dewpoint Depression Visibility Wind Speed Wind Dir Waves Ship Positions

Oceanus

Owner: G & H TOWING COMPANY, Galveston, TX. More information available from US FCC via Universal Licensing System and Coast Guard Vessel Documentation Center.

Last reported at 2018-Jan-20 04:04 UTC. Time now 2018-Jan-23 23:51 UTC.
Position N 29°42' W 095°01'.

Length 24 m; draft 5.4 m.

Type: Tug. MMSI: 367735750.

Date/timePositionNaut miles runAvg speedWind from/ knotsBaromVisibWave heightAir tempDewpointWater temp
2018-Jan-20 04:04N 29°42' W 095°01'2 8.3
2018-Jan-20 03:53N 29°42' W 094°59'1 2.3
2018-Jan-20 03:26N 29°41' W 095°00'2 0.4
2018-Jan-19 23:17N 29°42' W 095°01'2 0.3
2018-Jan-19 17:51N 29°42' W 094°59'1 1.1
2018-Jan-19 16:56N 29°41' W 095°00'1 2.9
2018-Jan-19 16:30N 29°41' W 094°59'0 0.8
2018-Jan-19 16:00N 29°41' W 094°59'1 0.9
2018-Jan-19 15:23N 29°41' W 094°59'0 1.3
2018-Jan-19 15:00N 29°41' W 094°59'  
2018-Jan-12 03:33N 29°45' W 095°07'5 0.2
2018-Jan-11 04:12N 29°43' W 095°01'1 0.2
2018-Jan-11 01:01N 29°42' W 095°01'0 6.1
2018-Jan-11 00:59N 29°42' W 095°01'1 2.8
2018-Jan-11 00:30N 29°44' W 095°01'0 0.0
2018-Jan-10 23:59N 29°44' W 095°01'1 1.5
2018-Jan-10 23:01N 29°42' W 095°01'0 2.0
2018-Jan-10 23:00N 29°42' W 095°01'0 0.2
2018-Jan-10 22:26N 29°42' W 095°01'0 0.0
2018-Jan-10 21:50N 29°42' W 095°01'0 0.0
2018-Jan-10 21:26N 29°42' W 095°01'0 0.0
2018-Jan-10 20:50N 29°42' W 095°01'0 0.0
2018-Jan-10 20:26N 29°42' W 095°01'0 0.2
2018-Jan-10 19:58N 29°42' W 095°01'  

Dump ship's entire track history